EJU64UV LIMC-HESX
Flight info
| Callsign | EJU64UV |
|---|---|
| Flight time | N/A |
| Altitude | 35000 |
| Route | ROBAS DCT IBNAN DCT IPDAB DCT LUMAV DCT NIKOL DCT VAKSU DCT PINDO DCT PIKOS UL607 ATV DCT PAXIS L607 NABSI P557 OBRAN L321 REXUM M872 FYM W613 ALPID W8 CVO |
| Aircraft | A320/M-SDE2E3FGHIJ1RWXYZ/LB1 |
Departure
| Time | 2026-05-06 09:13 |
|---|---|
| Airport | Milan Malpensa International Airport (LIMC) |
Arrival
| Time | N/A |
|---|---|
| Airport | Sphinx International Airport (HESX) |
| Time | Latitude | Longitude | Altitude | Speed | Heading |
|---|---|---|---|---|---|
| 2026-05-06 08:41 | 45.64546 | 8.72483 | 752 ft | 0 kts | 350° |
| 2026-05-06 09:01 | 45.64539 | 8.72485 | 748 ft | 2 kts | 349° |
| 2026-05-06 09:01 | 45.64519 | 8.72491 | 768 ft | 3 kts | 345° |
| 2026-05-06 09:02 | 45.64500 | 8.72499 | 746 ft | 3 kts | 339° |
| 2026-05-06 09:02 | 45.64482 | 8.72511 | 749 ft | 3 kts | 326° |
| 2026-05-06 09:02 | 45.64468 | 8.72528 | 749 ft | 3 kts | 292° |
| 2026-05-06 09:02 | 45.64465 | 8.72543 | 750 ft | 1 kts | 259° |
| 2026-05-06 09:03 | 45.64465 | 8.72544 | 750 ft | 0 kts | 259° |
| 2026-05-06 09:05 | 45.64465 | 8.72543 | 750 ft | 1 kts | 259° |
| 2026-05-06 09:05 | 45.64459 | 8.72501 | 750 ft | 6 kts | 259° |
| 2026-05-06 09:06 | 45.64440 | 8.72451 | 748 ft | 7 kts | 221° |
| 2026-05-06 09:06 | 45.64385 | 8.72435 | 751 ft | 8 kts | 179° |
| 2026-05-06 09:06 | 45.64338 | 8.72443 | 749 ft | 8 kts | 169° |
| 2026-05-06 09:06 | 45.64251 | 8.72469 | 747 ft | 15 kts | 168° |
| 2026-05-06 09:07 | 45.64143 | 8.72500 | 750 ft | 17 kts | 169° |
| 2026-05-06 09:07 | 45.64021 | 8.72542 | 749 ft | 20 kts | 164° |
| 2026-05-06 09:07 | 45.63873 | 8.72587 | 752 ft | 22 kts | 169° |
| 2026-05-06 09:07 | 45.63720 | 8.72632 | 748 ft | 23 kts | 168° |
| 2026-05-06 09:08 | 45.63564 | 8.72677 | 751 ft | 23 kts | 169° |
| 2026-05-06 09:08 | 45.63407 | 8.72719 | 751 ft | 23 kts | 169° |
| 2026-05-06 09:08 | 45.63247 | 8.72764 | 748 ft | 23 kts | 169° |
| 2026-05-06 09:08 | 45.63087 | 8.72806 | 750 ft | 24 kts | 169° |
| 2026-05-06 09:09 | 45.62925 | 8.72851 | 751 ft | 24 kts | 168° |
| 2026-05-06 09:09 | 45.62762 | 8.72895 | 748 ft | 24 kts | 171° |
| 2026-05-06 09:09 | 45.62598 | 8.72938 | 751 ft | 24 kts | 168° |
| 2026-05-06 09:09 | 45.62435 | 8.72985 | 752 ft | 24 kts | 168° |
| 2026-05-06 09:10 | 45.62273 | 8.73027 | 750 ft | 24 kts | 169° |
| 2026-05-06 09:10 | 45.62109 | 8.73071 | 752 ft | 24 kts | 169° |
| 2026-05-06 09:10 | 45.61945 | 8.73117 | 750 ft | 24 kts | 168° |
| 2026-05-06 09:10 | 45.61783 | 8.73167 | 752 ft | 23 kts | 161° |
| 2026-05-06 09:11 | 45.61693 | 8.73306 | 752 ft | 17 kts | 123° |
| 2026-05-06 09:11 | 45.61637 | 8.73423 | 750 ft | 6 kts | 124° |
| 2026-05-06 09:11 | 45.61612 | 8.73477 | 747 ft | 7 kts | 124° |
| 2026-05-06 09:11 | 45.61585 | 8.73560 | 749 ft | 11 kts | 101° |
| 2026-05-06 09:12 | 45.61593 | 8.73691 | 742 ft | 16 kts | 70° |
| 2026-05-06 09:12 | 45.61682 | 8.73724 | 743 ft | 14 kts | 348° |
| 2026-05-06 09:12 | 45.61849 | 8.73678 | 745 ft | 53 kts | 349° |
| 2026-05-06 09:12 | 45.62440 | 8.73529 | 748 ft | 116 kts | 348° |
| 2026-05-06 09:13 | 45.63404 | 8.73247 | 745 ft | 165 kts | 348° |
| 2026-05-06 09:13 | 45.64584 | 8.72922 | 1203 ft | 170 kts | 354° |
| 2026-05-06 09:13 | 45.65765 | 8.72879 | 1769 ft | 173 kts | 20° |
| 2026-05-06 09:13 | 45.66773 | 8.73839 | 2085 ft | 182 kts | 63° |
| 2026-05-06 09:14 | 45.67230 | 8.75560 | 2469 ft | 189 kts | 78° |
| 2026-05-06 09:14 | 45.67830 | 8.77288 | 3015 ft | 203 kts | 56° |
| 2026-05-06 09:14 | 45.68823 | 8.78778 | 3602 ft | 211 kts | 48° |
| 2026-05-06 09:14 | 45.69934 | 8.80204 | 4186 ft | 218 kts | 45° |
| 2026-05-06 09:15 | 45.71106 | 8.81631 | 4787 ft | 224 kts | 45° |
| 2026-05-06 09:15 | 45.72249 | 8.83203 | 5152 ft | 234 kts | 64° |
| 2026-05-06 09:15 | 45.72613 | 8.85417 | 5584 ft | 231 kts | 102° |
| 2026-05-06 09:15 | 45.72082 | 8.87550 | 6191 ft | 228 kts | 128° |
| 2026-05-06 09:16 | 45.71124 | 8.89360 | 6827 ft | 230 kts | 131° |
| 2026-05-06 09:16 | 45.70159 | 8.91202 | 7461 ft | 233 kts | 130° |
| 2026-05-06 09:16 | 45.69188 | 8.93090 | 8141 ft | 236 kts | 130° |
| 2026-05-06 09:16 | 45.68213 | 8.95003 | 8831 ft | 239 kts | 129° |
| 2026-05-06 09:17 | 45.67229 | 8.96937 | 9527 ft | 242 kts | 129° |
| 2026-05-06 09:17 | 45.66231 | 8.98899 | 10186 ft | 246 kts | 130° |
| 2026-05-06 09:17 | 45.65221 | 9.00885 | 10798 ft | 249 kts | 130° |
| 2026-05-06 09:17 | 45.64149 | 9.02844 | 11350 ft | 253 kts | 136° |
| 2026-05-06 09:18 | 45.62917 | 9.04789 | 11515 ft | 276 kts | 137° |
| 2026-05-06 09:18 | 45.61569 | 9.06901 | 11664 ft | 299 kts | 136° |
| 2026-05-06 09:18 | 45.60113 | 9.09178 | 11787 ft | 321 kts | 136° |
| 2026-05-06 09:18 | 45.58557 | 9.11609 | 11940 ft | 341 kts | 136° |
| 2026-05-06 09:19 | 45.56935 | 9.14155 | 12367 ft | 350 kts | 136° |
| 2026-05-06 09:19 | 45.55289 | 9.16747 | 12948 ft | 354 kts | 136° |
| 2026-05-06 09:19 | 45.53625 | 9.19375 | 13563 ft | 358 kts | 136° |
| 2026-05-06 09:19 | 45.51952 | 9.22018 | 14117 ft | 361 kts | 136° |